sensor_id;sensor_type;location;lat;lon;timestamp;P1;durP1;ratioP1;P2;durP2;ratioP2
73239;SDS011;61452;40.054;4.110;2024-03-02T00:01:28;2.92;;;0.68;;
73239;SDS011;61452;40.054;4.110;2024-03-02T00:06:30;4.35;;;1.38;;
73239;SDS011;61452;40.054;4.110;2024-03-02T00:11:34;2.75;;;0.73;;
73239;SDS011;61452;40.054;4.110;2024-03-02T00:16:38;3.80;;;1.02;;
73239;SDS011;61452;40.054;4.110;2024-03-02T00:21:40;3.97;;;0.93;;
73239;SDS011;61452;40.054;4.110;2024-03-02T00:26:44;2.15;;;0.80;;
73239;SDS011;61452;40.054;4.110;2024-03-02T00:31:47;3.92;;;1.27;;
73239;SDS011;61452;40.054;4.110;2024-03-02T00:36:50;3.53;;;0.63;;
73239;SDS011;61452;40.054;4.110;2024-03-02T00:41:52;2.60;;;0.90;;
73239;SDS011;61452;40.054;4.110;2024-03-02T00:46:54;6.18;;;0.70;;
73239;SDS011;61452;40.054;4.110;2024-03-02T00:51:56;3.50;;;0.73;;
73239;SDS011;61452;40.054;4.110;2024-03-02T00:56:59;3.15;;;0.70;;
73239;SDS011;61452;40.054;4.110;2024-03-02T01:02:01;1.77;;;0.60;;
73239;SDS011;61452;40.054;4.110;2024-03-02T01:07:03;3.65;;;0.70;;
73239;SDS011;61452;40.054;4.110;2024-03-02T01:12:05;2.50;;;0.80;;
73239;SDS011;61452;40.054;4.110;2024-03-02T01:17:08;2.67;;;0.70;;
73239;SDS011;61452;40.054;4.110;2024-03-02T01:22:10;3.75;;;1.10;;
73239;SDS011;61452;40.054;4.110;2024-03-02T01:27:12;2.72;;;0.60;;
73239;SDS011;61452;40.054;4.110;2024-03-02T01:32:14;2.55;;;0.73;;
73239;SDS011;61452;40.054;4.110;2024-03-02T01:37:17;2.80;;;0.50;;
73239;SDS011;61452;40.054;4.110;2024-03-02T01:42:19;2.25;;;0.60;;
73239;SDS011;61452;40.054;4.110;2024-03-02T01:47:21;2.22;;;0.68;;
73239;SDS011;61452;40.054;4.110;2024-03-02T01:52:23;2.22;;;1.00;;
73239;SDS011;61452;40.054;4.110;2024-03-02T01:57:25;3.45;;;0.80;;
73239;SDS011;61452;40.054;4.110;2024-03-02T02:02:28;2.42;;;0.60;;
73239;SDS011;61452;40.054;4.110;2024-03-02T02:07:30;3.00;;;0.82;;
73239;SDS011;61452;40.054;4.110;2024-03-02T02:12:33;2.10;;;0.50;;
73239;SDS011;61452;40.054;4.110;2024-03-02T02:17:35;2.35;;;0.57;;
73239;SDS011;61452;40.054;4.110;2024-03-02T02:22:37;1.98;;;0.80;;
73239;SDS011;61452;40.054;4.110;2024-03-02T02:27:39;2.55;;;0.68;;
73239;SDS011;61452;40.054;4.110;2024-03-02T02:32:41;1.85;;;0.68;;
73239;SDS011;61452;40.054;4.110;2024-03-02T02:37:44;2.88;;;0.50;;
73239;SDS011;61452;40.054;4.110;2024-03-02T02:42:48;3.03;;;0.68;;
73239;SDS011;61452;40.054;4.110;2024-03-02T02:47:50;2.28;;;0.55;;
73239;SDS011;61452;40.054;4.110;2024-03-02T02:52:52;2.85;;;0.57;;
73239;SDS011;61452;40.054;4.110;2024-03-02T02:57:54;1.58;;;0.40;;
73239;SDS011;61452;40.054;4.110;2024-03-02T03:02:57;1.50;;;0.50;;
73239;SDS011;61452;40.054;4.110;2024-03-02T03:07:59;2.70;;;0.63;;
73239;SDS011;61452;40.054;4.110;2024-03-02T03:13:01;2.22;;;0.70;;
73239;SDS011;61452;40.054;4.110;2024-03-02T03:18:03;4.40;;;0.63;;
73239;SDS011;61452;40.054;4.110;2024-03-02T03:23:06;3.05;;;0.98;;
73239;SDS011;61452;40.054;4.110;2024-03-02T03:28:09;1.77;;;0.43;;
73239;SDS011;61452;40.054;4.110;2024-03-02T03:33:13;1.98;;;0.50;;
73239;SDS011;61452;40.054;4.110;2024-03-02T03:38:15;1.58;;;0.57;;
73239;SDS011;61452;40.054;4.110;2024-03-02T03:43:18;1.65;;;0.45;;
73239;SDS011;61452;40.054;4.110;2024-03-02T03:48:20;1.95;;;0.40;;
73239;SDS011;61452;40.054;4.110;2024-03-02T03:53:22;3.72;;;0.63;;
73239;SDS011;61452;40.054;4.110;2024-03-02T03:58:25;2.70;;;0.68;;
73239;SDS011;61452;40.054;4.110;2024-03-02T04:03:27;1.70;;;0.60;;
73239;SDS011;61452;40.054;4.110;2024-03-02T04:08:29;2.25;;;0.40;;
73239;SDS011;61452;40.054;4.110;2024-03-02T04:13:31;2.20;;;0.40;;
73239;SDS011;61452;40.054;4.110;2024-03-02T04:18:33;1.35;;;0.40;;
73239;SDS011;61452;40.054;4.110;2024-03-02T04:23:36;0.93;;;0.45;;
73239;SDS011;61452;40.054;4.110;2024-03-02T04:28:38;3.60;;;0.43;;
73239;SDS011;61452;40.054;4.110;2024-03-02T04:33:41;2.03;;;0.50;;
73239;SDS011;61452;40.054;4.110;2024-03-02T04:38:43;4.22;;;0.75;;
73239;SDS011;61452;40.054;4.110;2024-03-02T04:43:45;1.90;;;0.43;;
73239;SDS011;61452;40.054;4.110;2024-03-02T04:48:47;1.48;;;0.40;;
73239;SDS011;61452;40.054;4.110;2024-03-02T04:53:50;2.22;;;0.55;;
73239;SDS011;61452;40.054;4.110;2024-03-02T04:58:52;1.15;;;0.40;;
73239;SDS011;61452;40.054;4.110;2024-03-02T05:03:54;3.97;;;0.50;;
73239;SDS011;61452;40.054;4.110;2024-03-02T05:08:56;1.15;;;0.30;;
73239;SDS011;61452;40.054;4.110;2024-03-02T05:13:58;1.67;;;0.32;;
73239;SDS011;61452;40.054;4.110;2024-03-02T05:19:00;2.72;;;0.65;;
73239;SDS011;61452;40.054;4.110;2024-03-02T05:24:03;2.53;;;0.50;;
73239;SDS011;61452;40.054;4.110;2024-03-02T05:29:05;2.00;;;0.80;;
73239;SDS011;61452;40.054;4.110;2024-03-02T05:34:07;2.17;;;0.50;;
73239;SDS011;61452;40.054;4.110;2024-03-02T05:39:09;3.30;;;0.47;;
73239;SDS011;61452;40.054;4.110;2024-03-02T05:44:11;2.20;;;0.70;;
73239;SDS011;61452;40.054;4.110;2024-03-02T05:49:14;2.72;;;0.50;;
73239;SDS011;61452;40.054;4.110;2024-03-02T05:54:16;1.83;;;0.40;;
73239;SDS011;61452;40.054;4.110;2024-03-02T05:59:18;2.65;;;0.40;;
73239;SDS011;61452;40.054;4.110;2024-03-02T06:04:20;1.42;;;0.50;;
73239;SDS011;61452;40.054;4.110;2024-03-02T06:09:22;3.03;;;0.60;;
73239;SDS011;61452;40.054;4.110;2024-03-02T06:14:26;3.28;;;0.50;;
73239;SDS011;61452;40.054;4.110;2024-03-02T06:19:28;2.70;;;0.50;;
73239;SDS011;61452;40.054;4.110;2024-03-02T06:24:30;2.38;;;0.30;;
73239;SDS011;61452;40.054;4.110;2024-03-02T06:29:32;2.13;;;0.60;;
73239;SDS011;61452;40.054;4.110;2024-03-02T06:34:35;1.90;;;0.50;;
73239;SDS011;61452;40.054;4.110;2024-03-02T06:39:38;3.08;;;0.60;;
73239;SDS011;61452;40.054;4.110;2024-03-02T06:44:40;1.95;;;0.82;;
73239;SDS011;61452;40.054;4.110;2024-03-02T06:49:42;2.33;;;0.80;;
73239;SDS011;61452;40.054;4.110;2024-03-02T06:54:44;1.73;;;0.50;;
73239;SDS011;61452;40.054;4.110;2024-03-02T06:59:47;2.10;;;0.50;;
73239;SDS011;61452;40.054;4.110;2024-03-02T07:04:52;1.85;;;0.60;;
73239;SDS011;61452;40.054;4.110;2024-03-02T07:09:54;2.47;;;0.47;;
73239;SDS011;61452;40.054;4.110;2024-03-02T07:14:57;1.50;;;0.50;;
73239;SDS011;61452;40.054;4.110;2024-03-02T07:20:04;1.52;;;0.45;;
73239;SDS011;61452;40.054;4.110;2024-03-02T07:25:08;1.55;;;0.50;;
73239;SDS011;61452;40.054;4.110;2024-03-02T07:30:30;2.00;;;0.70;;
73239;SDS011;61452;40.054;4.110;2024-03-02T07:35:34;2.75;;;0.68;;
73239;SDS011;61452;40.054;4.110;2024-03-02T07:40:36;3.13;;;0.40;;
73239;SDS011;61452;40.054;4.110;2024-03-02T07:45:38;1.90;;;0.70;;
73239;SDS011;61452;40.054;4.110;2024-03-02T07:50:40;3.22;;;0.60;;
73239;SDS011;61452;40.054;4.110;2024-03-02T07:55:43;1.13;;;0.43;;
73239;SDS011;61452;40.054;4.110;2024-03-02T08:00:45;2.58;;;0.63;;
73239;SDS011;61452;40.054;4.110;2024-03-02T08:05:47;2.70;;;0.50;;
73239;SDS011;61452;40.054;4.110;2024-03-02T08:10:49;1.77;;;0.57;;
73239;SDS011;61452;40.054;4.110;2024-03-02T08:15:51;3.28;;;0.73;;
73239;SDS011;61452;40.054;4.110;2024-03-02T08:20:53;4.32;;;0.52;;
73239;SDS011;61452;40.054;4.110;2024-03-02T08:25:56;2.33;;;0.77;;
73239;SDS011;61452;40.054;4.110;2024-03-02T08:30:58;3.25;;;0.60;;
73239;SDS011;61452;40.054;4.110;2024-03-02T08:36:00;2.58;;;0.88;;
73239;SDS011;61452;40.054;4.110;2024-03-02T08:41:03;2.50;;;0.60;;
73239;SDS011;61452;40.054;4.110;2024-03-02T08:46:05;3.88;;;0.68;;
73239;SDS011;61452;40.054;4.110;2024-03-02T08:51:07;2.95;;;0.55;;
73239;SDS011;61452;40.054;4.110;2024-03-02T08:56:11;4.13;;;1.63;;
73239;SDS011;61452;40.054;4.110;2024-03-02T09:01:14;3.33;;;0.70;;
73239;SDS011;61452;40.054;4.110;2024-03-02T09:06:17;2.85;;;0.95;;
73239;SDS011;61452;40.054;4.110;2024-03-02T09:11:19;4.72;;;1.00;;
73239;SDS011;61452;40.054;4.110;2024-03-02T09:16:21;4.82;;;0.93;;
73239;SDS011;61452;40.054;4.110;2024-03-02T09:21:23;3.00;;;0.70;;
73239;SDS011;61452;40.054;4.110;2024-03-02T09:26:27;3.30;;;0.90;;
73239;SDS011;61452;40.054;4.110;2024-03-02T09:31:29;4.32;;;0.77;;
73239;SDS011;61452;40.054;4.110;2024-03-02T09:36:31;3.58;;;0.80;;
73239;SDS011;61452;40.054;4.110;2024-03-02T09:41:33;3.88;;;0.90;;
73239;SDS011;61452;40.054;4.110;2024-03-02T09:46:35;3.22;;;1.10;;
73239;SDS011;61452;40.054;4.110;2024-03-02T09:51:38;2.92;;;0.82;;
73239;SDS011;61452;40.054;4.110;2024-03-02T09:56:42;4.43;;;1.13;;
73239;SDS011;61452;40.054;4.110;2024-03-02T10:02:00;4.20;;;1.67;;
73239;SDS011;61452;40.054;4.110;2024-03-02T10:12:13;2.47;;;0.75;;
73239;SDS011;61452;40.054;4.110;2024-03-02T10:17:17;3.25;;;0.73;;
73239;SDS011;61452;40.054;4.110;2024-03-02T10:22:19;5.88;;;1.00;;
73239;SDS011;61452;40.054;4.110;2024-03-02T10:27:26;2.28;;;0.70;;
73239;SDS011;61452;40.054;4.110;2024-03-02T10:32:29;4.00;;;0.75;;
73239;SDS011;61452;40.054;4.110;2024-03-02T10:37:31;2.70;;;0.85;;
73239;SDS011;61452;40.054;4.110;2024-03-02T10:42:34;3.60;;;1.00;;
73239;SDS011;61452;40.054;4.110;2024-03-02T10:47:38;3.15;;;0.80;;
73239;SDS011;61452;40.054;4.110;2024-03-02T10:52:40;4.07;;;1.02;;
73239;SDS011;61452;40.054;4.110;2024-03-02T10:57:50;2.30;;;1.08;;
73239;SDS011;61452;40.054;4.110;2024-03-02T11:03:02;5.70;;;1.08;;
73239;SDS011;61452;40.054;4.110;2024-03-02T11:08:09;5.47;;;0.90;;
73239;SDS011;61452;40.054;4.110;2024-03-02T11:13:14;2.50;;;1.10;;
73239;SDS011;61452;40.054;4.110;2024-03-02T11:18:17;4.60;;;1.00;;
73239;SDS011;61452;40.054;4.110;2024-03-02T11:23:19;3.17;;;1.17;;
73239;SDS011;61452;40.054;4.110;2024-03-02T11:28:36;3.85;;;1.00;;
73239;SDS011;61452;40.054;4.110;2024-03-02T11:33:38;4.57;;;0.95;;
73239;SDS011;61452;40.054;4.110;2024-03-02T11:38:41;3.17;;;0.70;;
73239;SDS011;61452;40.054;4.110;2024-03-02T11:43:45;4.75;;;0.85;;
73239;SDS011;61452;40.054;4.110;2024-03-02T11:48:47;5.32;;;0.80;;
73239;SDS011;61452;40.054;4.110;2024-03-02T11:53:49;4.22;;;1.23;;
73239;SDS011;61452;40.054;4.110;2024-03-02T11:58:53;5.20;;;1.10;;
73239;SDS011;61452;40.054;4.110;2024-03-02T12:03:55;3.65;;;1.17;;
73239;SDS011;61452;40.054;4.110;2024-03-02T12:09:00;3.30;;;0.90;;
73239;SDS011;61452;40.054;4.110;2024-03-02T12:14:02;5.82;;;1.00;;
73239;SDS011;61452;40.054;4.110;2024-03-02T12:19:06;3.15;;;0.90;;
73239;SDS011;61452;40.054;4.110;2024-03-02T12:24:08;3.22;;;1.00;;
73239;SDS011;61452;40.054;4.110;2024-03-02T12:29:10;3.90;;;0.80;;
73239;SDS011;61452;40.054;4.110;2024-03-02T12:34:13;2.67;;;1.08;;
73239;SDS011;61452;40.054;4.110;2024-03-02T12:39:17;5.00;;;1.05;;
73239;SDS011;61452;40.054;4.110;2024-03-02T12:44:20;5.47;;;1.65;;
73239;SDS011;61452;40.054;4.110;2024-03-02T12:49:22;4.05;;;1.00;;
73239;SDS011;61452;40.054;4.110;2024-03-02T12:54:25;3.75;;;1.00;;
73239;SDS011;61452;40.054;4.110;2024-03-02T12:59:28;3.47;;;1.25;;
73239;SDS011;61452;40.054;4.110;2024-03-02T13:04:30;2.72;;;0.85;;
73239;SDS011;61452;40.054;4.110;2024-03-02T13:09:33;4.35;;;1.20;;
73239;SDS011;61452;40.054;4.110;2024-03-02T13:14:36;3.60;;;0.95;;
73239;SDS011;61452;40.054;4.110;2024-03-02T13:19:38;2.95;;;1.08;;
73239;SDS011;61452;40.054;4.110;2024-03-02T13:24:40;2.97;;;0.95;;
73239;SDS011;61452;40.054;4.110;2024-03-02T13:34:46;4.03;;;0.90;;
73239;SDS011;61452;40.054;4.110;2024-03-02T13:39:48;2.67;;;0.90;;
73239;SDS011;61452;40.054;4.110;2024-03-02T13:44:51;2.33;;;0.88;;
73239;SDS011;61452;40.054;4.110;2024-03-02T13:49:54;2.95;;;0.88;;
73239;SDS011;61452;40.054;4.110;2024-03-02T13:54:56;3.10;;;0.90;;
73239;SDS011;61452;40.054;4.110;2024-03-02T13:59:58;2.47;;;1.15;;
73239;SDS011;61452;40.054;4.110;2024-03-02T14:05:00;2.70;;;1.23;;
73239;SDS011;61452;40.054;4.110;2024-03-02T14:10:02;3.20;;;1.00;;
73239;SDS011;61452;40.054;4.110;2024-03-02T14:15:05;3.53;;;1.00;;
73239;SDS011;61452;40.054;4.110;2024-03-02T14:20:07;2.08;;;0.90;;
73239;SDS011;61452;40.054;4.110;2024-03-02T14:30:13;2.35;;;0.95;;
73239;SDS011;61452;40.054;4.110;2024-03-02T14:35:15;5.70;;;1.27;;
73239;SDS011;61452;40.054;4.110;2024-03-02T14:40:18;3.25;;;1.10;;
73239;SDS011;61452;40.054;4.110;2024-03-02T14:45:20;2.70;;;0.80;;
73239;SDS011;61452;40.054;4.110;2024-03-02T14:50:22;3.50;;;1.10;;
73239;SDS011;61452;40.054;4.110;2024-03-02T14:55:24;4.85;;;1.30;;
73239;SDS011;61452;40.054;4.110;2024-03-02T15:00:26;4.35;;;0.98;;
73239;SDS011;61452;40.054;4.110;2024-03-02T15:05:28;5.15;;;1.45;;
73239;SDS011;61452;40.054;4.110;2024-03-02T15:10:30;3.45;;;0.98;;
73239;SDS011;61452;40.054;4.110;2024-03-02T15:15:32;2.72;;;1.08;;
73239;SDS011;61452;40.054;4.110;2024-03-02T15:20:35;3.60;;;0.88;;
73239;SDS011;61452;40.054;4.110;2024-03-02T15:25:37;3.55;;;0.98;;
73239;SDS011;61452;40.054;4.110;2024-03-02T15:30:39;4.38;;;1.45;;
73239;SDS011;61452;40.054;4.110;2024-03-02T15:35:41;3.53;;;1.10;;
73239;SDS011;61452;40.054;4.110;2024-03-02T15:40:43;2.25;;;1.10;;
73239;SDS011;61452;40.054;4.110;2024-03-02T15:45:46;1.75;;;1.00;;
73239;SDS011;61452;40.054;4.110;2024-03-02T15:50:48;2.13;;;1.00;;
73239;SDS011;61452;40.054;4.110;2024-03-02T15:55:51;4.78;;;0.82;;
73239;SDS011;61452;40.054;4.110;2024-03-02T16:00:53;5.00;;;0.90;;
73239;SDS011;61452;40.054;4.110;2024-03-02T16:05:55;4.10;;;1.05;;
73239;SDS011;61452;40.054;4.110;2024-03-02T16:10:58;6.13;;;1.05;;
73239;SDS011;61452;40.054;4.110;2024-03-02T16:16:03;3.97;;;1.10;;
73239;SDS011;61452;40.054;4.110;2024-03-02T16:21:05;2.30;;;0.85;;
73239;SDS011;61452;40.054;4.110;2024-03-02T16:26:08;3.55;;;0.95;;
73239;SDS011;61452;40.054;4.110;2024-03-02T16:31:11;2.05;;;0.90;;
73239;SDS011;61452;40.054;4.110;2024-03-02T16:36:14;3.28;;;0.80;;
73239;SDS011;61452;40.054;4.110;2024-03-02T16:41:16;4.57;;;1.05;;
73239;SDS011;61452;40.054;4.110;2024-03-02T16:46:19;3.17;;;1.00;;
73239;SDS011;61452;40.054;4.110;2024-03-02T16:51:21;4.43;;;0.88;;
73239;SDS011;61452;40.054;4.110;2024-03-02T16:56:23;2.83;;;1.10;;
73239;SDS011;61452;40.054;4.110;2024-03-02T17:01:26;2.05;;;0.95;;
73239;SDS011;61452;40.054;4.110;2024-03-02T17:06:28;1.95;;;0.68;;
73239;SDS011;61452;40.054;4.110;2024-03-02T17:11:32;3.55;;;1.15;;
73239;SDS011;61452;40.054;4.110;2024-03-02T17:16:35;3.38;;;1.10;;
73239;SDS011;61452;40.054;4.110;2024-03-02T17:21:37;3.65;;;1.38;;
73239;SDS011;61452;40.054;4.110;2024-03-02T17:26:39;2.67;;;0.90;;
73239;SDS011;61452;40.054;4.110;2024-03-02T17:31:41;4.40;;;1.08;;
73239;SDS011;61452;40.054;4.110;2024-03-02T17:36:43;5.18;;;0.90;;
73239;SDS011;61452;40.054;4.110;2024-03-02T17:41:45;3.10;;;1.15;;
73239;SDS011;61452;40.054;4.110;2024-03-02T17:46:48;3.03;;;0.93;;
73239;SDS011;61452;40.054;4.110;2024-03-02T17:51:50;4.63;;;1.00;;
73239;SDS011;61452;40.054;4.110;2024-03-02T17:56:52;3.80;;;1.17;;
73239;SDS011;61452;40.054;4.110;2024-03-02T18:01:54;1.23;;;0.60;;
73239;SDS011;61452;40.054;4.110;2024-03-02T18:06:58;3.53;;;1.00;;
73239;SDS011;61452;40.054;4.110;2024-03-02T18:12:01;3.33;;;1.10;;
73239;SDS011;61452;40.054;4.110;2024-03-02T18:17:06;2.60;;;0.90;;
73239;SDS011;61452;40.054;4.110;2024-03-02T18:22:08;5.22;;;1.02;;
73239;SDS011;61452;40.054;4.110;2024-03-02T18:27:10;2.63;;;0.95;;
73239;SDS011;61452;40.054;4.110;2024-03-02T18:32:12;1.30;;;0.70;;
73239;SDS011;61452;40.054;4.110;2024-03-02T18:37:18;2.80;;;1.10;;
73239;SDS011;61452;40.054;4.110;2024-03-02T18:42:23;3.72;;;0.70;;
73239;SDS011;61452;40.054;4.110;2024-03-02T18:47:25;2.58;;;1.02;;
73239;SDS011;61452;40.054;4.110;2024-03-02T18:52:28;3.90;;;1.00;;
73239;SDS011;61452;40.054;4.110;2024-03-02T18:57:30;2.60;;;0.80;;
73239;SDS011;61452;40.054;4.110;2024-03-02T19:02:32;1.83;;;0.80;;
73239;SDS011;61452;40.054;4.110;2024-03-02T19:07:35;5.05;;;1.80;;
73239;SDS011;61452;40.054;4.110;2024-03-02T19:12:37;3.50;;;0.98;;
73239;SDS011;61452;40.054;4.110;2024-03-02T19:17:43;4.35;;;0.80;;
73239;SDS011;61452;40.054;4.110;2024-03-02T19:22:45;3.55;;;1.15;;
73239;SDS011;61452;40.054;4.110;2024-03-02T19:27:50;4.47;;;1.10;;
73239;SDS011;61452;40.054;4.110;2024-03-02T19:32:52;4.00;;;1.00;;
73239;SDS011;61452;40.054;4.110;2024-03-02T19:37:54;3.40;;;1.10;;
73239;SDS011;61452;40.054;4.110;2024-03-02T19:42:57;4.32;;;1.10;;
73239;SDS011;61452;40.054;4.110;2024-03-02T19:47:59;3.45;;;0.88;;
73239;SDS011;61452;40.054;4.110;2024-03-02T19:53:01;5.82;;;1.05;;
73239;SDS011;61452;40.054;4.110;2024-03-02T19:58:04;3.97;;;0.80;;
73239;SDS011;61452;40.054;4.110;2024-03-02T20:03:06;2.45;;;1.10;;
73239;SDS011;61452;40.054;4.110;2024-03-02T20:08:08;3.53;;;1.08;;
73239;SDS011;61452;40.054;4.110;2024-03-02T20:13:10;4.10;;;0.90;;
73239;SDS011;61452;40.054;4.110;2024-03-02T20:18:13;3.53;;;1.10;;
73239;SDS011;61452;40.054;4.110;2024-03-02T20:23:15;3.72;;;1.05;;
73239;SDS011;61452;40.054;4.110;2024-03-02T20:28:17;4.00;;;1.00;;
73239;SDS011;61452;40.054;4.110;2024-03-02T20:33:19;3.00;;;1.02;;
73239;SDS011;61452;40.054;4.110;2024-03-02T20:38:21;3.83;;;1.20;;
73239;SDS011;61452;40.054;4.110;2024-03-02T20:43:23;4.82;;;1.05;;
73239;SDS011;61452;40.054;4.110;2024-03-02T20:48:26;4.68;;;1.17;;
73239;SDS011;61452;40.054;4.110;2024-03-02T20:58:32;3.58;;;1.00;;
73239;SDS011;61452;40.054;4.110;2024-03-02T21:03:34;3.17;;;1.10;;
73239;SDS011;61452;40.054;4.110;2024-03-02T21:08:39;3.97;;;1.05;;
73239;SDS011;61452;40.054;4.110;2024-03-02T21:13:41;3.30;;;1.20;;
73239;SDS011;61452;40.054;4.110;2024-03-02T21:18:44;3.90;;;1.30;;
73239;SDS011;61452;40.054;4.110;2024-03-02T21:23:46;5.35;;;1.40;;
73239;SDS011;61452;40.054;4.110;2024-03-02T21:28:48;5.45;;;1.23;;
73239;SDS011;61452;40.054;4.110;2024-03-02T21:33:50;5.25;;;1.23;;
73239;SDS011;61452;40.054;4.110;2024-03-02T21:38:52;5.60;;;1.23;;
73239;SDS011;61452;40.054;4.110;2024-03-02T21:43:54;4.10;;;1.15;;
73239;SDS011;61452;40.054;4.110;2024-03-02T21:48:56;6.32;;;1.40;;
73239;SDS011;61452;40.054;4.110;2024-03-02T21:53:58;6.28;;;1.55;;
73239;SDS011;61452;40.054;4.110;2024-03-02T21:59:00;4.65;;;1.30;;
73239;SDS011;61452;40.054;4.110;2024-03-02T22:04:02;4.28;;;1.40;;
73239;SDS011;61452;40.054;4.110;2024-03-02T22:09:04;6.75;;;1.67;;
73239;SDS011;61452;40.054;4.110;2024-03-02T22:14:07;3.92;;;1.08;;
73239;SDS011;61452;40.054;4.110;2024-03-02T22:19:09;7.93;;;1.45;;
73239;SDS011;61452;40.054;4.110;2024-03-02T22:24:12;4.05;;;1.13;;
73239;SDS011;61452;40.054;4.110;2024-03-02T22:29:15;6.28;;;1.80;;
73239;SDS011;61452;40.054;4.110;2024-03-02T22:34:18;6.15;;;1.42;;
73239;SDS011;61452;40.054;4.110;2024-03-02T22:39:20;8.35;;;1.63;;
73239;SDS011;61452;40.054;4.110;2024-03-02T22:44:22;6.70;;;1.90;;
73239;SDS011;61452;40.054;4.110;2024-03-02T22:49:24;3.40;;;0.98;;
73239;SDS011;61452;40.054;4.110;2024-03-02T22:54:26;4.60;;;2.00;;
73239;SDS011;61452;40.054;4.110;2024-03-02T22:59:28;6.30;;;1.35;;
73239;SDS011;61452;40.054;4.110;2024-03-02T23:04:30;3.97;;;1.08;;
73239;SDS011;61452;40.054;4.110;2024-03-02T23:09:32;4.35;;;1.67;;
73239;SDS011;61452;40.054;4.110;2024-03-02T23:14:35;4.72;;;1.67;;
73239;SDS011;61452;40.054;4.110;2024-03-02T23:19:37;10.27;;;1.55;;
73239;SDS011;61452;40.054;4.110;2024-03-02T23:24:39;4.90;;;1.48;;
73239;SDS011;61452;40.054;4.110;2024-03-02T23:29:41;4.80;;;1.27;;
73239;SDS011;61452;40.054;4.110;2024-03-02T23:34:43;7.25;;;1.45;;
73239;SDS011;61452;40.054;4.110;2024-03-02T23:39:45;4.57;;;1.42;;
73239;SDS011;61452;40.054;4.110;2024-03-02T23:45:00;4.60;;;1.50;;
73239;SDS011;61452;40.054;4.110;2024-03-02T23:50:03;8.27;;;1.92;;
73239;SDS011;61452;40.054;4.110;2024-03-02T23:55:06;6.32;;;1.73;;
